Time;durP1;ratioP1;P1;durP2;ratioP2;P2;SDS_P1;SDS_P2;PMS_P1;PMS_P2;Temp;Humidity;BMP_temperature;BMP_pressure;BME280_temperature;BME280_humidity;BME280_pressure;Samples;Min_cycle;Max_cycle;Signal;HPM_P1;HPM_P2
2022/10/15 00:00:28;;;;;;;8.57;3.10;;;10.00;99.90;;;;;;5033608;28;20526;-47
2022/10/15 00:02:53;;;;;;;5.28;2.90;;;10.00;99.90;;;;;;5033588;28;20032;-48
2022/10/15 00:05:20;;;;;;;7.25;2.72;;;10.00;99.90;;;;;;5015909;28;20044;-45
2022/10/15 00:07:46;;;;;;;5.13;3.03;;;9.90;99.90;;;;;;5032838;28;20419;-46
2022/10/15 00:10:12;;;;;;;13.70;3.50;;;9.90;99.90;;;;;;5033382;28;20029;-49
2022/10/15 00:12:38;;;;;;;8.65;2.97;;;9.90;99.90;;;;;;5033443;28;20096;-45
2022/10/15 00:15:04;;;;;;;5.93;2.85;;;9.90;99.90;;;;;;5033554;28;20073;-53
2022/10/15 00:17:32;;;;;;;12.13;3.53;;;9.90;99.90;;;;;;5033231;28;20029;-51
2022/10/15 00:19:57;;;;;;;27.02;4.35;;;9.80;99.90;;;;;;5033393;28;20104;-46
2022/10/15 00:22:23;;;;;;;25.83;4.68;;;9.80;99.90;;;;;;5033367;28;20490;-49
2022/10/15 00:24:48;;;;;;;35.88;4.55;;;9.80;99.90;;;;;;5032778;28;20052;-45
2022/10/15 00:27:14;;;;;;;24.00;4.70;;;9.80;99.90;;;;;;5033204;28;20033;-49
2022/10/15 00:29:40;;;;;;;18.60;4.30;;;9.80;99.90;;;;;;5033061;28;20029;-48
2022/10/15 00:32:05;;;;;;;6.25;3.92;;;9.80;99.90;;;;;;5014795;28;20535;-54
2022/10/15 00:34:31;;;;;;;6.35;3.97;;;9.80;99.90;;;;;;5031815;28;20017;-52
2022/10/15 00:36:56;;;;;;;10.80;4.10;;;9.70;99.90;;;;;;5031892;28;20022;-46
2022/10/15 00:39:22;;;;;;;11.27;4.15;;;9.70;99.90;;;;;;5031905;28;20476;-46
2022/10/15 00:41:47;;;;;;;9.45;3.85;;;9.60;99.90;;;;;;5032170;28;20026;-47
2022/10/15 00:44:27;;;;;;;7.25;3.50;;;9.60;99.90;;;;;;5032295;28;20029;-53
2022/10/15 00:46:54;;;;;;;;;;;9.50;99.90;;;;;;5032808;28;20026;-53
2022/10/15 00:49:37;;;;;;;11.38;4.35;;;9.40;99.90;;;;;;5032624;28;19913;-52
2022/10/15 00:52:14;;;;;;;11.82;3.67;;;9.40;99.90;;;;;;5032625;28;20041;-48
2022/10/15 00:54:47;;;;;;;7.40;3.42;;;9.40;99.90;;;;;;5031964;28;20055;-49
2022/10/15 00:57:13;;;;;;;17.90;3.78;;;9.30;99.90;;;;;;5032545;28;20499;-53
2022/10/15 00:59:43;;;;;;;16.75;4.35;;;9.30;99.90;;;;;;5032161;28;20028;-46
2022/10/15 01:02:10;;;;;;;36.88;6.10;;;9.30;99.90;;;;;;5032426;28;20415;-48
2022/10/15 01:04:37;;;;;;;17.92;4.20;;;9.30;99.90;;;;;;5032534;28;20083;-50
2022/10/15 01:07:02;;;;;;;11.38;4.15;;;9.30;99.90;;;;;;5032388;28;20040;-50
2022/10/15 01:09:28;;;;;;;13.35;4.32;;;9.30;99.90;;;;;;5031723;28;20041;-48
2022/10/15 01:11:55;;;;;;;7.43;4.18;;;9.20;99.90;;;;;;5032242;28;20440;-52
2022/10/15 01:14:43;;;;;;;7.90;4.20;;;9.30;99.90;;;;;;5031609;28;20041;-48
2022/10/15 01:17:43;;;;;;;6.30;4.07;;;9.20;99.90;;;;;;5032310;28;20021;-47
2022/10/15 01:20:42;;;;;;;8.85;4.88;;;9.20;99.90;;;;;;5032628;28;20025;-46
2022/10/15 01:23:32;;;;;;;17.63;4.55;;;9.10;99.90;;;;;;5031742;28;20101;-51
2022/10/15 01:26:52;;;;;;;10.82;4.05;;;9.10;99.90;;;;;;5031833;28;20037;-48
2022/10/15 01:29:32;;;;;;;;;;;9.00;99.90;;;;;;4988234;28;20056;-49
2022/10/15 01:32:03;;;;;;;5.80;3.42;;;9.00;99.90;;;;;;5031924;28;19909;-49
2022/10/15 01:34:43;;;;;;;9.23;4.22;;;9.00;99.90;;;;;;5031595;28;20064;-48
2022/10/15 01:37:15;;;;;;;11.25;3.60;;;9.00;99.90;;;;;;5031401;28;20021;-49
2022/10/15 01:40:03;;;;;;;17.98;4.05;;;8.90;99.90;;;;;;5030535;28;20078;-49
2022/10/15 01:42:53;;;;;;;11.85;4.00;;;8.90;99.90;;;;;;5029909;28;20030;-47
2022/10/15 01:45:28;;;;;;;7.65;3.78;;;8.90;99.90;;;;;;5031228;28;20025;-54
2022/10/15 01:47:57;;;;;;;19.58;3.70;;;8.90;99.90;;;;;;5031146;28;20041;-48
2022/10/15 01:50:26;;;;;;;6.70;3.73;;;8.80;99.90;;;;;;5031653;28;20109;-50
2022/10/15 01:52:55;;;;;;;24.38;3.60;;;8.80;99.90;;;;;;5030935;28;20523;-48
2022/10/15 01:55:22;;;;;;;12.10;4.22;;;8.90;99.90;;;;;;5031429;28;20033;-46
2022/10/15 01:57:48;;;;;;;8.77;4.25;;;8.90;99.90;;;;;;5031967;28;20104;-48
2022/10/15 02:00:15;;;;;;;8.30;4.43;;;9.00;99.90;;;;;;5030959;28;20508;-46
2022/10/15 02:02:41;;;;;;;20.25;4.97;;;9.00;99.90;;;;;;5031371;28;20164;-46
2022/10/15 02:05:23;;;;;;;14.88;5.22;;;9.10;99.90;;;;;;5030918;28;20128;-46
2022/10/15 02:08:07;;;;;;;15.88;4.70;;;9.10;99.90;;;;;;5030961;28;20041;-46
2022/10/15 02:10:52;;;;;;;20.35;4.18;;;9.10;99.90;;;;;;5031456;28;20029;-46
2022/10/15 02:13:44;;;;;;;10.63;4.97;;;9.10;99.90;;;;;;5014018;28;20096;-48
2022/10/15 02:16:17;;;;;;;15.13;4.43;;;9.10;99.90;;;;;;5027388;28;20033;-48
2022/10/15 02:18:54;;;;;;;11.00;4.05;;;9.10;99.90;;;;;;5030593;28;20118;-50
2022/10/15 02:21:23;;;;;;;8.10;4.53;;;9.10;99.90;;;;;;5030442;28;20541;-48
2022/10/15 02:24:10;;;;;;;13.63;4.32;;;9.00;99.90;;;;;;5030778;28;20049;-49
2022/10/15 02:26:38;;;;;;;15.35;4.97;;;9.10;99.90;;;;;;5031105;28;20419;-52
2022/10/15 02:29:06;;;;;;;8.93;4.20;;;9.10;99.90;;;;;;5031029;28;20522;-52
2022/10/15 02:31:34;;;;;;;9.23;4.80;;;9.20;99.90;;;;;;5031090;28;20030;-47
2022/10/15 02:34:05;;;;;;;18.83;4.80;;;9.20;99.90;;;;;;5031173;28;20033;-47
2022/10/15 02:36:31;;;;;;;8.73;4.65;;;9.20;99.90;;;;;;5030870;28;20515;-46
2022/10/15 02:38:59;;;;;;;10.73;4.75;;;9.20;99.90;;;;;;5030781;28;20038;-50
2022/10/15 02:41:28;;;;;;;9.57;5.03;;;9.20;99.90;;;;;;5030503;28;20029;-52
2022/10/15 02:43:54;;;;;;;13.40;5.07;;;9.30;99.90;;;;;;5029926;28;20025;-52
2022/10/15 02:46:20;;;;;;;12.30;5.15;;;9.30;99.90;;;;;;5029710;28;20034;-47
2022/10/15 02:48:45;;;;;;;14.65;5.25;;;9.40;99.90;;;;;;5029896;28;20046;-50
2022/10/15 02:51:11;;;;;;;11.35;4.95;;;9.40;99.90;;;;;;5030084;28;20024;-46
2022/10/15 02:53:37;;;;;;;11.15;4.85;;;9.50;99.90;;;;;;5012233;28;20432;-54
2022/10/15 02:56:02;;;;;;;8.45;4.63;;;9.50;99.90;;;;;;5030601;28;20029;-50
2022/10/15 02:58:29;;;;;;;11.32;5.60;;;9.50;99.90;;;;;;5030635;28;20025;-54
2022/10/15 03:00:55;;;;;;;10.07;5.22;;;9.50;99.90;;;;;;5030823;28;20128;-51
2022/10/15 03:03:21;;;;;;;9.45;4.70;;;9.60;99.90;;;;;;5030803;28;20061;-52
2022/10/15 03:05:47;;;;;;;14.23;5.85;;;9.60;99.90;;;;;;5030394;28;20025;-51
2022/10/15 03:08:12;;;;;;;11.88;5.35;;;9.70;99.90;;;;;;5030234;28;20547;-51
2022/10/15 03:10:38;;;;;;;13.00;5.50;;;9.70;99.90;;;;;;5030359;28;20017;-47
2022/10/15 03:13:05;;;;;;;15.20;5.45;;;9.70;99.90;;;;;;5030804;28;20029;-50
2022/10/15 03:15:31;;;;;;;12.13;4.97;;;9.70;99.90;;;;;;5030741;28;20084;-50
2022/10/15 03:17:56;;;;;;;11.02;4.97;;;9.70;99.90;;;;;;5029474;28;20018;-50
2022/10/15 03:20:22;;;;;;;11.25;5.32;;;9.80;99.90;;;;;;5030353;28;20028;-49
2022/10/15 03:22:48;;;;;;;10.60;4.65;;;9.80;99.90;;;;;;5030140;28;20021;-52
2022/10/15 03:25:14;;;;;;;10.38;5.40;;;9.90;99.90;;;;;;5029902;28;20448;-46
2022/10/15 03:27:39;;;;;;;10.68;5.38;;;9.90;99.90;;;;;;5030557;28;20423;-45
2022/10/15 03:30:06;;;;;;;13.27;6.30;;;10.00;99.90;;;;;;5030495;28;20030;-45
2022/10/15 03:32:31;;;;;;;10.15;5.07;;;10.10;99.90;;;;;;5032945;28;20021;-51
2022/10/15 03:34:57;;;;;;;10.88;5.10;;;10.10;99.90;;;;;;5034081;28;20025;-46
2022/10/15 03:37:22;;;;;;;9.38;4.85;;;10.10;99.90;;;;;;5034152;28;20064;-48
2022/10/15 03:39:48;;;;;;;8.57;4.40;;;10.10;99.90;;;;;;5034018;28;20025;-48
2022/10/15 03:42:14;;;;;;;9.13;5.05;;;10.20;99.90;;;;;;5034011;28;20024;-47
2022/10/15 03:44:39;;;;;;;9.98;4.43;;;10.20;99.90;;;;;;5034000;28;20061;-52
2022/10/15 03:47:05;;;;;;;8.88;5.05;;;10.20;99.90;;;;;;5033373;28;20017;-47
2022/10/15 03:49:30;;;;;;;10.45;4.72;;;10.30;99.90;;;;;;5032753;28;20036;-47
2022/10/15 03:51:56;;;;;;;9.63;4.88;;;10.30;99.90;;;;;;5032638;28;20488;-52
2022/10/15 03:54:22;;;;;;;10.30;5.53;;;10.30;99.90;;;;;;5032446;28;20029;-52
2022/10/15 03:56:47;;;;;;;11.15;5.28;;;10.40;99.90;;;;;;5033246;28;20045;-49
2022/10/15 03:59:13;;;;;;;12.57;5.13;;;10.40;99.90;;;;;;5032885;28;20053;-48
2022/10/15 04:01:39;;;;;;;12.35;5.90;;;10.40;99.90;;;;;;5015697;28;20112;-47
2022/10/15 04:04:04;;;;;;;10.27;4.78;;;10.40;99.90;;;;;;5033639;28;20034;-54
2022/10/15 04:06:33;;;;;;;12.05;5.18;;;10.50;99.90;;;;;;5033611;28;20445;-49
2022/10/15 04:08:58;;;;;;;8.30;4.40;;;10.50;99.90;;;;;;5032943;28;20037;-47
2022/10/15 04:11:24;;;;;;;9.95;4.50;;;10.60;99.90;;;;;;5033473;28;20108;-47
2022/10/15 04:13:50;;;;;;;9.07;4.07;;;10.60;99.90;;;;;;5033006;28;20028;-49
2022/10/15 04:16:16;;;;;;;7.75;4.40;;;10.60;99.90;;;;;;5033320;28;20040;-46
2022/10/15 04:18:42;;;;;;;7.35;3.97;;;10.60;99.90;;;;;;5033510;28;20724;-48
2022/10/15 04:21:08;;;;;;;9.45;3.95;;;10.60;99.90;;;;;;5033226;28;20077;-46
2022/10/15 04:23:34;;;;;;;10.45;5.25;;;10.70;99.90;;;;;;5033258;28;20071;-48
2022/10/15 04:26:00;;;;;;;8.05;4.53;;;10.70;99.90;;;;;;5032993;28;20029;-51
2022/10/15 04:28:26;;;;;;;12.65;4.50;;;10.70;99.90;;;;;;5032940;28;20595;-51
2022/10/15 04:30:56;;;;;;;11.90;3.90;;;10.70;99.90;;;;;;5032948;28;20049;-46
2022/10/15 04:33:22;;;;;;;7.97;3.63;;;10.70;99.90;;;;;;5033078;28;20026;-46
2022/10/15 04:35:58;;;;;;;7.45;3.60;;;10.70;99.90;;;;;;5033126;28;20029;-50
2022/10/15 04:38:23;;;;;;;8.05;4.38;;;10.70;99.90;;;;;;5014946;28;20083;-51
2022/10/15 04:40:49;;;;;;;9.32;4.25;;;10.70;99.90;;;;;;5033072;28;20025;-48
2022/10/15 04:43:14;;;;;;;7.80;3.97;;;10.70;99.90;;;;;;5032154;28;20018;-48
2022/10/15 04:45:40;;;;;;;12.23;3.90;;;10.80;99.90;;;;;;5015313;28;20037;-48
2022/10/15 04:48:06;;;;;;;8.02;4.25;;;10.80;99.90;;;;;;5032622;28;20034;-48
2022/10/15 04:50:31;;;;;;;8.00;4.40;;;10.80;99.90;;;;;;5032751;28;20072;-48
2022/10/15 04:52:58;;;;;;;8.68;4.28;;;10.90;99.90;;;;;;5032587;28;20484;-46
2022/10/15 04:55:24;;;;;;;9.25;4.70;;;10.90;99.90;;;;;;5032619;28;20033;-46
2022/10/15 04:57:49;;;;;;;6.70;3.83;;;11.00;99.90;;;;;;5032739;28;20080;-51
2022/10/15 05:00:15;;;;;;;8.93;3.83;;;11.00;99.90;;;;;;5032532;28;20026;-48
2022/10/15 05:02:42;;;;;;;7.82;3.70;;;11.00;99.90;;;;;;5032591;28;20480;-46
2022/10/15 05:05:08;;;;;;;10.38;3.90;;;11.00;99.90;;;;;;5032464;28;20021;-46
2022/10/15 05:07:33;;;;;;;7.00;3.80;;;11.00;99.90;;;;;;5032399;28;20029;-46
2022/10/15 05:09:59;;;;;;;7.82;3.53;;;11.00;99.90;;;;;;5014886;28;20041;-46
2022/10/15 05:12:24;;;;;;;6.72;3.15;;;11.00;99.90;;;;;;5032422;28;20025;-46
2022/10/15 05:14:50;;;;;;;6.32;3.60;;;11.00;99.90;;;;;;5032538;28;20026;-45
2022/10/15 05:17:15;;;;;;;10.70;3.85;;;11.00;99.90;;;;;;5032531;28;20372;-53
2022/10/15 05:19:41;;;;;;;6.95;3.58;;;11.00;99.90;;;;;;5033171;28;20032;-45
2022/10/15 05:22:07;;;;;;;7.50;3.80;;;11.00;99.90;;;;;;5032506;28;20029;-48
2022/10/15 05:24:32;;;;;;;9.45;4.00;;;11.10;99.90;;;;;;5032217;28;20099;-48
2022/10/15 05:26:58;;;;;;;10.00;4.50;;;11.10;99.90;;;;;;5032379;28;20026;-48
2022/10/15 05:29:23;;;;;;;7.82;3.83;;;11.10;99.90;;;;;;5032128;28;20071;-53
2022/10/15 05:31:50;;;;;;;9.63;4.40;;;11.10;99.90;;;;;;5032096;28;20014;-49
2022/10/15 05:34:16;;;;;;;7.88;4.18;;;11.20;99.90;;;;;;5014160;28;20495;-50
2022/10/15 05:36:42;;;;;;;9.18;4.15;;;11.20;99.90;;;;;;5031462;28;20044;-54
2022/10/15 05:39:09;;;;;;;8.68;3.65;;;11.20;99.90;;;;;;5031815;28;20459;-47
2022/10/15 05:41:35;;;;;;;8.80;4.25;;;11.20;99.90;;;;;;5031745;28;20056;-46
2022/10/15 05:44:01;;;;;;;7.75;4.28;;;11.30;99.90;;;;;;5031757;28;20057;-50
2022/10/15 05:46:27;;;;;;;10.13;4.97;;;11.30;99.90;;;;;;5031131;28;20079;-48
2022/10/15 05:48:55;;;;;;;10.13;4.57;;;11.40;99.90;;;;;;5031403;28;20527;-50
2022/10/15 05:51:21;;;;;;;7.60;3.90;;;11.30;99.90;;;;;;5031392;28;20026;-50
2022/10/15 05:53:50;;;;;;;11.30;4.97;;;11.30;99.90;;;;;;5024281;28;20030;-46
2022/10/15 05:56:16;;;;;;;7.47;4.10;;;11.30;99.90;;;;;;5028102;28;20033;-50
2022/10/15 05:58:41;;;;;;;7.97;4.45;;;11.30;99.90;;;;;;5028590;28;20030;-46
2022/10/15 06:01:09;;;;;;;9.43;4.57;;;11.30;99.90;;;;;;5024575;28;20361;-49
2022/10/15 06:03:35;;;;;;;8.95;4.72;;;11.30;99.90;;;;;;5029880;28;20181;-48
2022/10/15 06:06:02;;;;;;;12.02;4.93;;;11.30;99.90;;;;;;5029612;28;20021;-47
2022/10/15 06:08:29;;;;;;;11.45;4.97;;;11.30;99.90;;;;;;5031071;28;20064;-52
2022/10/15 06:10:55;;;;;;;16.42;6.18;;;11.30;99.90;;;;;;5031282;28;20110;-46
2022/10/15 06:13:21;;;;;;;11.32;5.53;;;11.40;99.90;;;;;;5031159;28;20029;-49
2022/10/15 06:15:46;;;;;;;11.48;6.35;;;11.40;99.90;;;;;;5029911;28;20119;-49
2022/10/15 06:18:15;;;;;;;15.32;6.88;;;11.40;99.90;;;;;;5031184;28;20095;-52
2022/10/15 06:20:42;;;;;;;17.17;6.95;;;11.40;99.90;;;;;;5028795;28;20021;-49
2022/10/15 06:23:09;;;;;;;17.35;7.05;;;11.50;99.90;;;;;;5029803;28;20064;-55
2022/10/15 06:25:35;;;;;;;15.57;6.40;;;11.50;99.90;;;;;;5030161;28;20037;-49
2022/10/15 06:28:05;;;;;;;17.77;8.82;;;11.50;99.90;;;;;;5027430;28;20384;-51
2022/10/15 06:30:31;;;;;;;23.63;9.35;;;11.50;99.90;;;;;;5030663;28;20029;-49
2022/10/15 06:32:57;;;;;;;20.60;9.38;;;11.60;99.90;;;;;;5030850;28;20025;-53
2022/10/15 06:35:24;;;;;;;16.75;7.60;;;11.70;99.90;;;;;;5031066;28;20546;-51
2022/10/15 06:37:49;;;;;;;11.63;6.05;;;11.70;99.90;;;;;;5030887;28;20105;-52
2022/10/15 06:40:15;;;;;;;15.65;6.13;;;11.70;99.90;;;;;;5030940;28;20112;-46
2022/10/15 06:42:41;;;;;;;14.70;6.43;;;11.70;99.90;;;;;;5030900;28;20026;-51
2022/10/15 06:45:09;;;;;;;12.38;6.10;;;11.70;99.90;;;;;;5030393;28;20038;-48
2022/10/15 06:47:36;;;;;;;10.63;5.65;;;11.60;99.90;;;;;;5030825;28;20021;-53
2022/10/15 06:50:04;;;;;;;9.07;4.93;;;11.60;99.90;;;;;;5030709;28;20064;-54
2022/10/15 06:52:30;;;;;;;10.93;5.53;;;11.60;99.90;;;;;;5030710;28;20057;-47
2022/10/15 06:54:55;;;;;;;9.93;5.20;;;11.60;99.90;;;;;;5030355;28;20057;-47
2022/10/15 06:57:21;;;;;;;10.77;5.57;;;11.60;99.90;;;;;;5030666;28;20443;-52
2022/10/15 06:59:46;;;;;;;9.13;5.00;;;11.60;99.90;;;;;;5030500;28;20025;-46
2022/10/15 07:02:16;;;;;;;11.77;4.35;;;11.50;99.90;;;;;;5029933;28;20030;-46
2022/10/15 07:04:42;;;;;;;9.57;4.43;;;11.50;99.90;;;;;;5030580;28;20476;-48
2022/10/15 07:07:08;;;;;;;12.55;5.00;;;11.60;99.90;;;;;;5032421;28;20152;-49
2022/10/15 07:09:34;;;;;;;11.18;4.78;;;11.70;99.90;;;;;;5034463;28;20052;-46
2022/10/15 07:12:00;;;;;;;6.88;4.05;;;11.70;99.90;;;;;;5034330;28;20032;-46
2022/10/15 07:14:25;;;;;;;6.40;4.22;;;11.70;99.90;;;;;;5034435;28;20026;-47
2022/10/15 07:16:51;;;;;;;10.05;4.35;;;11.70;99.90;;;;;;5034662;28;20018;-50
2022/10/15 07:19:16;;;;;;;7.95;4.00;;;11.70;99.90;;;;;;5034153;28;20025;-50
2022/10/15 07:21:42;;;;;;;6.25;3.75;;;11.70;99.90;;;;;;5032664;28;20212;-52
2022/10/15 07:24:08;;;;;;;9.45;4.18;;;11.60;99.90;;;;;;5030935;28;20041;-46
2022/10/15 07:26:33;;;;;;;7.80;3.90;;;11.60;99.90;;;;;;5016604;28;20484;-51
2022/10/15 07:28:59;;;;;;;10.00;3.95;;;11.70;99.90;;;;;;5034278;28;20037;-46
2022/10/15 07:31:25;;;;;;;10.98;5.75;;;11.70;99.90;;;;;;5034285;28;20072;-50
2022/10/15 07:33:51;;;;;;;9.35;4.90;;;11.80;99.90;;;;;;5034312;28;20030;-46
2022/10/15 07:36:19;;;;;;;7.93;4.45;;;11.90;99.90;;;;;;5034062;28;20104;-49
2022/10/15 07:38:45;;;;;;;8.98;4.88;;;11.90;99.90;;;;;;5034152;28;20080;-49
2022/10/15 07:41:10;;;;;;;7.75;4.32;;;12.00;99.90;;;;;;5034142;28;20021;-47
2022/10/15 07:43:37;;;;;;;12.15;5.03;;;12.10;99.90;;;;;;5033933;28;20083;-49
2022/10/15 07:46:03;;;;;;;9.13;4.88;;;12.10;99.90;;;;;;5034044;28;20484;-50
2022/10/15 07:48:29;;;;;;;13.20;6.03;;;12.20;99.90;;;;;;5033923;28;20112;-51
2022/10/15 07:50:56;;;;;;;10.10;5.40;;;12.50;99.90;;;;;;5034191;28;20033;-49
2022/10/15 07:53:22;;;;;;;11.52;5.80;;;12.80;99.90;;;;;;5033843;28;20022;-46
2022/10/15 07:55:47;;;;;;;10.50;5.13;;;13.10;99.90;;;;;;5033207;28;20500;-48
2022/10/15 07:58:13;;;;;;;11.38;5.13;;;13.20;99.90;;;;;;5033243;28;20108;-47
2022/10/15 08:00:38;;;;;;;8.18;4.93;;;13.30;99.90;;;;;;5032958;28;20036;-52
2022/10/15 08:03:04;;;;;;;10.02;4.95;;;13.30;99.90;;;;;;5033264;28;20032;-52
2022/10/15 08:05:30;;;;;;;10.60;4.35;;;13.40;99.90;;;;;;5032876;28;20432;-49
2022/10/15 08:07:55;;;;;;;8.95;3.92;;;13.40;99.90;;;;;;5033015;28;20132;-46
2022/10/15 08:10:21;;;;;;;10.90;3.65;;;13.40;99.90;;;;;;5032608;28;20101;-48
2022/10/15 08:12:47;;;;;;;8.75;3.10;;;13.60;99.90;;;;;;5033170;28;20040;-49
2022/10/15 08:15:12;;;;;;;6.35;2.78;;;13.70;99.90;;;;;;5033041;28;20088;-47
2022/10/15 08:17:38;;;;;;;6.57;2.92;;;13.90;99.90;;;;;;5032560;28;20038;-45
2022/10/15 08:20:04;;;;;;;11.00;2.53;;;14.10;99.90;;;;;;5032489;28;20036;-46
2022/10/15 08:22:30;;;;;;;6.82;1.80;;;14.40;99.90;;;;;;5031788;28;20025;-48
2022/10/15 08:24:55;;;;;;;3.33;1.40;;;15.00;99.90;;;;;;5032803;28;20046;-47
2022/10/15 08:27:21;;;;;;;7.20;1.40;;;16.00;99.90;;;;;;5032949;28;20059;-53
2022/10/15 08:29:47;;;;;;;4.93;1.15;;;17.10;99.90;;;;;;5031843;28;20392;-50
2022/10/15 08:32:13;;;;;;;2.97;0.90;;;17.60;99.90;;;;;;5032059;28;20028;-46
2022/10/15 08:34:38;;;;;;;5.80;1.27;;;17.80;99.90;;;;;;5032422;28;20401;-47
2022/10/15 08:37:04;;;;;;;3.78;0.98;;;18.10;99.90;;;;;;5032608;28;20021;-45
2022/10/15 08:39:30;;;;;;;5.75;0.77;;;18.80;99.90;;;;;;5032810;28;20025;-53
2022/10/15 08:41:59;;;;;;;3.20;0.80;;;19.70;99.90;;;;;;5032339;28;20030;-47
2022/10/15 08:44:26;;;;;;;;;;;20.40;99.90;;;;;;5032538;28;20025;-47
2022/10/15 08:47:01;;;;;;;2.17;0.60;;;21.20;99.90;;;;;;5030208;28;20342;-45
2022/10/15 08:49:41;;;;;;;3.92;1.00;;;22.00;99.90;;;;;;5032402;28;20033;-45
2022/10/15 08:52:23;;;;;;;3.13;0.90;;;22.60;99.90;;;;;;5031679;28;20025;-51
2022/10/15 08:54:48;;;;;;;3.35;0.63;;;23.50;99.90;;;;;;5030791;28;20036;-59
2022/10/15 08:57:44;;;;;;;4.20;0.70;;;23.90;99.90;;;;;;5031645;28;20030;-56
2022/10/15 09:00:19;;;;;;;3.30;1.02;;;23.80;99.90;;;;;;5021663;28;20033;-50
2022/10/15 09:02:57;;;;;;;3.95;0.90;;;24.30;99.90;;;;;;5031771;28;20026;-49
2022/10/15 09:05:29;;;;;;;2.97;0.85;;;24.50;98.60;;;;;;5030305;28;20033;-50
2022/10/15 09:08:32;;;;;;;5.57;0.93;;;24.70;98.00;;;;;;5031537;28;20103;-56
2022/10/15 09:11:24;;;;;;;3.65;0.85;;;25.20;98.50;;;;;;5031727;28;20037;-52
2022/10/15 09:13:51;;;;;;;5.07;0.70;;;25.50;96.50;;;;;;5000310;28;20025;-50
2022/10/15 09:16:23;;;;;;;2.22;0.60;;;25.80;95.30;;;;;;5031323;28;20018;-50
2022/10/15 09:18:51;;;;;;;2.88;0.50;;;26.00;95.20;;;;;;5031100;28;20075;-50
2022/10/15 09:21:18;;;;;;;2.55;0.68;;;26.30;94.60;;;;;;5031403;28;20333;-54
2022/10/15 09:23:44;;;;;;;4.13;0.60;;;27.00;94.60;;;;;;5031867;28;20037;-50
2022/10/15 09:26:32;;;;;;;3.35;0.47;;;27.10;92.90;;;;;;5031718;28;20028;-47
2022/10/15 09:29:33;;;;;;;3.65;0.85;;;27.60;91.50;;;;;;5031721;28;20041;-48
2022/10/15 09:32:30;;;;;;;4.63;1.00;;;27.60;90.20;;;;;;5000607;28;20044;-49
2022/10/15 09:35:13;;;;;;;2.33;0.40;;;27.50;89.50;;;;;;5026668;28;20040;-47
2022/10/15 09:37:55;;;;;;;5.95;1.20;;;27.90;90.10;;;;;;5031209;28;20029;-47
2022/10/15 09:40:41;;;;;;;3.67;0.80;;;27.90;87.80;;;;;;5030535;28;20048;-47
2022/10/15 09:43:10;;;;;;;4.72;0.88;;;28.00;87.60;;;;;;5031148;28;20009;-51
2022/10/15 09:45:36;;;;;;;3.67;0.70;;;28.60;87.40;;;;;;5031430;28;20029;-51
2022/10/15 09:48:18;;;;;;;5.10;0.90;;;28.70;83.10;;;;;;5030582;28;20480;-50
2022/10/15 09:50:54;;;;;;;5.40;1.08;;;27.00;83.40;;;;;;5030506;28;20109;-47
2022/10/15 09:53:44;;;;;;;3.08;1.00;;;26.30;87.90;;;;;;5029595;28;20033;-52
2022/10/15 09:56:25;;;;;;;5.32;0.77;;;26.50;89.40;;;;;;5031290;28;20116;-50
2022/10/15 09:58:55;;;;;;;5.05;1.00;;;26.90;86.20;;;;;;5029981;28;20053;-51
2022/10/15 10:01:26;;;;;;;3.17;0.70;;;26.00;85.40;;;;;;5030322;28;20048;-51
2022/10/15 10:04:08;;;;;;;2.97;0.85;;;25.20;86.90;;;;;;5029862;28;20022;-52
2022/10/15 10:06:52;;;;;;;5.50;0.88;;;23.50;90.90;;;;;;5029800;28;20373;-49
2022/10/15 10:09:21;;;;;;;6.50;0.88;;;23.60;91.60;;;;;;5026851;28;20049;-57
2022/10/15 10:12:00;;;;;;;2.72;0.88;;;23.70;90.40;;;;;;5030475;28;20460;-46
2022/10/15 10:14:30;;;;;;;6.72;1.23;;;24.10;90.60;;;;;;5030506;28;20087;-47
2022/10/15 10:17:18;;;;;;;7.25;1.05;;;24.50;90.00;;;;;;5030614;28;20053;-47
2022/10/15 10:20:00;;;;;;;4.18;0.80;;;24.00;90.30;;;;;;5029964;28;20061;-47
2022/10/15 10:22:26;;;;;;;6.35;0.75;;;24.60;90.10;;;;;;5030515;28;20048;-45
2022/10/15 10:24:52;;;;;;;3.97;0.88;;;25.20;87.70;;;;;;5029304;28;20072;-50
2022/10/15 10:27:19;;;;;;;4.05;0.77;;;25.30;85.40;;;;;;5030529;28;20028;-48
2022/10/15 10:29:53;;;;;;;3.70;0.70;;;26.40;85.00;;;;;;5030336;28;20029;-49
2022/10/15 10:32:22;;;;;;;4.80;0.80;;;26.80;83.00;;;;;;5030737;28;20030;-53
2022/10/15 10:34:49;;;;;;;4.57;0.80;;;26.40;79.40;;;;;;5010710;28;20025;-55
2022/10/15 10:37:15;;;;;;;6.47;1.13;;;24.80;84.60;;;;;;5028404;28;20013;-56
2022/10/15 10:39:41;;;;;;;4.43;0.90;;;24.70;85.30;;;;;;5029681;28;20033;-56
2022/10/15 10:42:32;;;;;;;4.70;1.15;;;23.60;84.70;;;;;;5028833;28;20033;-53
2022/10/15 10:45:21;;;;;;;6.82;0.95;;;21.50;90.60;;;;;;5029060;28;20034;-56
2022/10/15 10:47:46;;;;;;;5.43;0.80;;;21.30;93.10;;;;;;5029194;28;20021;-57
2022/10/15 10:50:33;;;;;;;4.50;0.95;;;21.90;92.70;;;;;;5026462;28;20198;-48
2022/10/15 10:53:19;;;;;;;3.58;0.90;;;21.60;93.80;;;;;;5029487;28;20389;-53
2022/10/15 10:55:45;;;;;;;6.25;0.90;;;21.10;93.70;;;;;;5029113;28;20022;-49
2022/10/15 10:58:19;;;;;;;4.75;1.13;;;20.40;94.70;;;;;;5029423;28;20032;-50
2022/10/15 11:00:47;;;;;;;6.28;1.15;;;20.50;95.50;;;;;;5029207;28;20022;-49
2022/10/15 11:03:26;;;;;;;4.30;0.85;;;21.20;95.80;;;;;;5029449;28;20044;-50
2022/10/15 11:06:11;;;;;;;4.68;1.08;;;22.40;94.00;;;;;;5027575;28;20022;-47
2022/10/15 11:08:51;;;;;;;3.65;0.70;;;23.10;93.50;;;;;;5027312;28;20112;-49
2022/10/15 11:11:25;;;;;;;7.93;1.10;;;23.10;91.60;;;;;;5028172;28;20033;-53
2022/10/15 11:13:59;;;;;;;5.18;1.00;;;22.40;92.60;;;;;;5028551;28;20357;-53
2022/10/15 11:16:53;;;;;;;3.95;0.80;;;21.90;92.80;;;;;;5029453;28;20190;-51
2022/10/15 11:19:36;;;;;;;8.73;1.60;;;21.80;93.20;;;;;;5028102;28;20116;-47
2022/10/15 11:22:40;;;;;;;5.22;1.00;;;21.70;95.50;;;;;;5025600;28;20021;-45
2022/10/15 11:25:39;;;;;;;8.38;1.25;;;20.80;94.20;;;;;;5028314;28;20542;-48
2022/10/15 11:28:30;;;;;;;6.15;1.38;;;19.60;96.20;;;;;;5024234;28;20033;-48
2022/10/15 11:31:15;;;;;;;13.55;1.30;;;18.80;97.70;;;;;;5029714;28;20030;-51
2022/10/15 11:34:13;;;;;;;8.90;1.20;;;18.60;99.90;;;;;;5029818;28;20353;-52
2022/10/15 11:36:42;;;;;;;7.80;1.10;;;18.50;99.90;;;;;;5027754;28;20028;-46
2022/10/15 11:39:16;;;;;;;5.32;1.13;;;19.00;99.90;;;;;;5028895;28;20017;-48
2022/10/15 11:42:11;;;;;;;9.18;1.20;;;19.80;99.90;;;;;;5022451;28;20087;-49
2022/10/15 11:45:02;;;;;;;8.80;1.30;;;20.20;97.60;;;;;;5008475;28;20041;-49
2022/10/15 11:47:34;;;;;;;3.95;1.00;;;19.90;97.40;;;;;;5011524;28;20030;-50
2022/10/15 11:50:08;;;;;;;5.85;1.17;;;19.60;98.90;;;;;;5028890;28;20516;-52
2022/10/15 11:52:53;;;;;;;8.73;1.23;;;19.30;99.80;;;;;;5029174;28;20025;-50
2022/10/15 11:55:21;;;;;;;4.38;1.00;;;18.80;99.90;;;;;;5032261;28;20521;-49
2022/10/15 11:57:51;;;;;;;7.85;0.90;;;18.50;99.90;;;;;;5032454;28;20025;-47
2022/10/15 12:00:38;;;;;;;6.95;1.33;;;18.40;99.90;;;;;;5032480;28;20037;-48
2022/10/15 12:03:29;;;;;;;8.18;1.20;;;18.20;99.90;;;;;;5032774;28;20087;-50
2022/10/15 12:06:08;;;;;;;9.00;1.30;;;17.80;99.90;;;;;;5032615;28;20022;-53
2022/10/15 12:08:37;;;;;;;4.55;0.85;;;17.10;99.90;;;;;;5032253;28;20076;-48
2022/10/15 12:11:29;;;;;;;;;;;16.50;99.90;;;;;;5033057;28;20021;-46
2022/10/15 12:14:22;;;;;;;1.45;0.38;;;15.90;99.90;;;;;;5024178;28;19932;-48
2022/10/15 12:17:02;;;;;;;2.53;0.35;;;15.40;99.90;;;;;;5027480;28;20030;-49
2022/10/15 12:19:53;;;;;;;2.65;0.60;;;15.00;99.90;;;;;;5043237;28;20476;-49
2022/10/15 12:22:32;;;;;;;1.38;0.50;;;14.90;99.90;;;;;;5032152;28;20036;-48
2022/10/15 12:24:58;;;;;;;1.25;0.65;;;15.00;99.90;;;;;;5032337;28;20089;-48
2022/10/15 12:27:29;;;;;;;1.40;0.50;;;15.00;99.90;;;;;;5032736;28;20061;-48
2022/10/15 12:30:00;;;;;;;2.25;0.40;;;15.00;99.90;;;;;;5032042;28;20033;-47
2022/10/15 12:32:29;;;;;;;2.35;0.32;;;15.10;99.90;;;;;;5028583;28;20037;-49
2022/10/15 12:35:00;;;;;;;0.40;0.30;;;15.00;99.90;;;;;;5031407;28;20037;-46
2022/10/15 12:37:28;;;;;;;2.60;0.50;;;15.10;99.90;;;;;;5031695;28;20028;-52
2022/10/15 12:40:23;;;;;;;1.73;0.50;;;15.20;99.90;;;;;;5031580;28;20500;-46
2022/10/15 12:42:53;;;;;;;1.77;0.63;;;15.20;99.90;;;;;;5030876;28;20041;-46
2022/10/15 12:45:26;;;;;;;2.78;0.50;;;15.20;99.90;;;;;;5025719;28;20021;-57
2022/10/15 12:47:54;;;;;;;4.70;0.90;;;15.30;99.90;;;;;;5024523;28;20072;-54
2022/10/15 12:50:23;;;;;;;2.92;0.65;;;15.40;99.90;;;;;;5031524;28;20117;-48
2022/10/15 12:53:24;;;;;;;4.35;0.80;;;15.40;99.90;;;;;;5031597;28;20025;-54
2022/10/15 12:56:08;;;;;;;6.50;1.45;;;15.40;99.90;;;;;;5031371;28;20080;-47
2022/10/15 12:58:37;;;;;;;2.97;0.50;;;15.60;99.90;;;;;;5029495;28;20062;-51
2022/10/15 13:01:14;;;;;;;6.00;0.80;;;15.70;99.90;;;;;;5030385;28;20040;-47
2022/10/15 13:03:49;;;;;;;2.53;0.60;;;15.90;99.90;;;;;;5030743;28;20026;-49
2022/10/15 13:06:21;;;;;;;2.95;0.77;;;16.40;99.90;;;;;;5028751;28;20025;-48
2022/10/15 13:08:53;;;;;;;4.35;0.50;;;16.80;99.90;;;;;;5029188;28;20076;-51